sensor_id;sensor_type;location;lat;lon;timestamp;temperature;humidity
64143;DHT22;50437;51.970;5.904;2023-03-01T00:01:20;-0.30;99.90
64143;DHT22;50437;51.970;5.904;2023-03-01T00:03:47;-0.30;99.90
64143;DHT22;50437;51.970;5.904;2023-03-01T00:06:13;-0.40;99.90
64143;DHT22;50437;51.970;5.904;2023-03-01T00:08:40;-0.40;99.90
64143;DHT22;50437;51.970;5.904;2023-03-01T00:11:14;-0.30;99.90
64143;DHT22;50437;51.970;5.904;2023-03-01T00:13:42;-0.40;99.90
64143;DHT22;50437;51.970;5.904;2023-03-01T00:16:12;-0.40;99.90
64143;DHT22;50437;51.970;5.904;2023-03-01T00:18:39;-0.40;99.90
64143;DHT22;50437;51.970;5.904;2023-03-01T00:21:05;-0.50;99.90
64143;DHT22;50437;51.970;5.904;2023-03-01T00:23:38;-0.50;99.90
64143;DHT22;50437;51.970;5.904;2023-03-01T00:26:09;-0.50;99.90
64143;DHT22;50437;51.970;5.904;2023-03-01T00:28:37;-0.50;99.90
64143;DHT22;50437;51.970;5.904;2023-03-01T00:31:12;-0.50;99.90
64143;DHT22;50437;51.970;5.904;2023-03-01T00:33:38;-0.50;99.90
64143;DHT22;50437;51.970;5.904;2023-03-01T00:36:05;-0.50;99.90
64143;DHT22;50437;51.970;5.904;2023-03-01T00:38:40;-0.50;99.90
64143;DHT22;50437;51.970;5.904;2023-03-01T00:41:09;-0.60;99.90
64143;DHT22;50437;51.970;5.904;2023-03-01T00:43:39;-0.50;99.90
64143;DHT22;50437;51.970;5.904;2023-03-01T00:46:11;-0.60;99.90
64143;DHT22;50437;51.970;5.904;2023-03-01T00:48:38;-0.50;99.90
64143;DHT22;50437;51.970;5.904;2023-03-01T00:51:06;-0.60;99.90
64143;DHT22;50437;51.970;5.904;2023-03-01T00:53:32;-0.60;99.90
64143;DHT22;50437;51.970;5.904;2023-03-01T00:55:59;-0.60;99.90
64143;DHT22;50437;51.970;5.904;2023-03-01T00:58:26;-0.70;99.90
64143;DHT22;50437;51.970;5.904;2023-03-01T01:00:52;-0.70;99.90
64143;DHT22;50437;51.970;5.904;2023-03-01T01:03:19;-0.70;99.90
64143;DHT22;50437;51.970;5.904;2023-03-01T01:05:45;-0.70;99.90
64143;DHT22;50437;51.970;5.904;2023-03-01T01:08:12;-0.70;99.90
64143;DHT22;50437;51.970;5.904;2023-03-01T01:10:38;-0.80;99.90
64143;DHT22;50437;51.970;5.904;2023-03-01T01:13:04;-0.80;99.90
64143;DHT22;50437;51.970;5.904;2023-03-01T01:15:34;-0.80;99.90
64143;DHT22;50437;51.970;5.904;2023-03-01T01:18:01;-0.80;99.90
64143;DHT22;50437;51.970;5.904;2023-03-01T01:20:28;-0.90;99.90
64143;DHT22;50437;51.970;5.904;2023-03-01T01:22:54;-1.00;99.90
64143;DHT22;50437;51.970;5.904;2023-03-01T01:25:20;-0.90;99.90
64143;DHT22;50437;51.970;5.904;2023-03-01T01:27:47;-0.90;99.90
64143;DHT22;50437;51.970;5.904;2023-03-01T01:30:13;-0.90;99.90
64143;DHT22;50437;51.970;5.904;2023-03-01T01:32:39;-0.90;99.90
64143;DHT22;50437;51.970;5.904;2023-03-01T01:35:05;-0.90;99.90
64143;DHT22;50437;51.970;5.904;2023-03-01T01:37:34;-1.00;99.90
64143;DHT22;50437;51.970;5.904;2023-03-01T01:40:01;-1.00;99.90
64143;DHT22;50437;51.970;5.904;2023-03-01T01:42:30;-1.00;99.90
64143;DHT22;50437;51.970;5.904;2023-03-01T01:45:24;-1.10;99.90
64143;DHT22;50437;51.970;5.904;2023-03-01T01:47:52;-1.00;99.90
64143;DHT22;50437;51.970;5.904;2023-03-01T01:50:20;-1.10;99.90
64143;DHT22;50437;51.970;5.904;2023-03-01T01:52:48;-1.10;99.90
64143;DHT22;50437;51.970;5.904;2023-03-01T01:55:20;-1.10;99.90
64143;DHT22;50437;51.970;5.904;2023-03-01T01:57:53;-1.20;99.90
64143;DHT22;50437;51.970;5.904;2023-03-01T02:00:24;-1.20;99.90
64143;DHT22;50437;51.970;5.904;2023-03-01T02:02:58;-1.20;99.90
64143;DHT22;50437;51.970;5.904;2023-03-01T02:05:27;-1.20;99.90
64143;DHT22;50437;51.970;5.904;2023-03-01T02:07:56;-1.20;99.90
64143;DHT22;50437;51.970;5.904;2023-03-01T02:10:23;-1.20;99.90
64143;DHT22;50437;51.970;5.904;2023-03-01T02:12:52;-1.30;99.90
64143;DHT22;50437;51.970;5.904;2023-03-01T02:15:18;-1.30;99.90
64143;DHT22;50437;51.970;5.904;2023-03-01T02:17:45;-1.20;99.90
64143;DHT22;50437;51.970;5.904;2023-03-01T02:20:40;-1.20;99.90
64143;DHT22;50437;51.970;5.904;2023-03-01T02:23:03;-1.20;99.90
64143;DHT22;50437;51.970;5.904;2023-03-01T02:30:33;-1.20;99.90
64143;DHT22;50437;51.970;5.904;2023-03-01T02:33:00;-1.10;99.90
64143;DHT22;50437;51.970;5.904;2023-03-01T02:35:34;-1.10;99.90
64143;DHT22;50437;51.970;5.904;2023-03-01T02:38:03;-0.90;99.90
64143;DHT22;50437;51.970;5.904;2023-03-01T02:40:33;-1.00;99.90
64143;DHT22;50437;51.970;5.904;2023-03-01T02:43:00;-1.00;99.90
64143;DHT22;50437;51.970;5.904;2023-03-01T02:45:27;-1.00;99.90
64143;DHT22;50437;51.970;5.904;2023-03-01T02:47:54;-1.10;99.90
64143;DHT22;50437;51.970;5.904;2023-03-01T02:56:01;-1.20;99.90
64143;DHT22;50437;51.970;5.904;2023-03-01T02:58:28;-1.30;99.90
64143;DHT22;50437;51.970;5.904;2023-03-01T03:00:55;-1.30;99.90
64143;DHT22;50437;51.970;5.904;2023-03-01T03:03:22;-1.20;99.90
64143;DHT22;50437;51.970;5.904;2023-03-01T03:05:49;-1.10;99.90
64143;DHT22;50437;51.970;5.904;2023-03-01T03:08:15;-1.10;99.90
64143;DHT22;50437;51.970;5.904;2023-03-01T03:10:50;-1.10;99.90
64143;DHT22;50437;51.970;5.904;2023-03-01T03:13:17;-1.00;99.90
64143;DHT22;50437;51.970;5.904;2023-03-01T03:15:45;-1.10;99.90
64143;DHT22;50437;51.970;5.904;2023-03-01T03:18:13;-1.00;99.90
64143;DHT22;50437;51.970;5.904;2023-03-01T03:20:41;-1.00;99.90
64143;DHT22;50437;51.970;5.904;2023-03-01T03:23:08;-1.10;99.90
64143;DHT22;50437;51.970;5.904;2023-03-01T03:25:34;-1.20;99.90
64143;DHT22;50437;51.970;5.904;2023-03-01T03:28:04;-1.20;99.90
64143;DHT22;50437;51.970;5.904;2023-03-01T03:30:38;-1.30;99.90
64143;DHT22;50437;51.970;5.904;2023-03-01T03:33:09;-1.40;99.90
64143;DHT22;50437;51.970;5.904;2023-03-01T03:35:47;-1.30;99.90
64143;DHT22;50437;51.970;5.904;2023-03-01T03:38:15;-1.40;99.90
64143;DHT22;50437;51.970;5.904;2023-03-01T03:40:44;-1.40;99.90
64143;DHT22;50437;51.970;5.904;2023-03-01T03:43:16;-1.40;99.90
64143;DHT22;50437;51.970;5.904;2023-03-01T03:45:47;-1.50;99.90
64143;DHT22;50437;51.970;5.904;2023-03-01T03:48:14;-1.50;99.90
64143;DHT22;50437;51.970;5.904;2023-03-01T03:50:40;-1.60;99.90
64143;DHT22;50437;51.970;5.904;2023-03-01T03:53:10;-1.50;99.90
64143;DHT22;50437;51.970;5.904;2023-03-01T03:55:36;-1.60;99.90
64143;DHT22;50437;51.970;5.904;2023-03-01T03:58:08;-1.60;99.90
64143;DHT22;50437;51.970;5.904;2023-03-01T04:00:39;-1.70;99.90
64143;DHT22;50437;51.970;5.904;2023-03-01T04:03:06;-1.60;99.90
64143;DHT22;50437;51.970;5.904;2023-03-01T04:05:33;-1.60;99.90
64143;DHT22;50437;51.970;5.904;2023-03-01T04:08:00;-1.60;99.90
64143;DHT22;50437;51.970;5.904;2023-03-01T04:10:31;-1.70;99.90
64143;DHT22;50437;51.970;5.904;2023-03-01T04:12:57;-1.70;99.90
64143;DHT22;50437;51.970;5.904;2023-03-01T04:15:25;-1.70;99.90
64143;DHT22;50437;51.970;5.904;2023-03-01T04:17:55;-1.80;99.90
64143;DHT22;50437;51.970;5.904;2023-03-01T04:20:28;-1.80;99.90
64143;DHT22;50437;51.970;5.904;2023-03-01T04:23:04;-1.80;99.90
64143;DHT22;50437;51.970;5.904;2023-03-01T04:25:51;-1.80;99.90
64143;DHT22;50437;51.970;5.904;2023-03-01T04:28:26;-1.80;99.90
64143;DHT22;50437;51.970;5.904;2023-03-01T04:30:54;-1.80;99.90
64143;DHT22;50437;51.970;5.904;2023-03-01T04:33:21;-1.80;99.90
64143;DHT22;50437;51.970;5.904;2023-03-01T04:35:47;-1.90;99.90
64143;DHT22;50437;51.970;5.904;2023-03-01T04:38:17;-1.90;99.90
64143;DHT22;50437;51.970;5.904;2023-03-01T04:40:44;-1.90;99.90
64143;DHT22;50437;51.970;5.904;2023-03-01T04:43:11;-1.90;99.90
64143;DHT22;50437;51.970;5.904;2023-03-01T04:45:37;-1.90;99.90
64143;DHT22;50437;51.970;5.904;2023-03-01T04:48:04;-1.90;99.90
64143;DHT22;50437;51.970;5.904;2023-03-01T04:50:30;-1.90;99.90
64143;DHT22;50437;51.970;5.904;2023-03-01T04:52:56;-1.90;99.90
64143;DHT22;50437;51.970;5.904;2023-03-01T04:55:27;-2.00;99.90
64143;DHT22;50437;51.970;5.904;2023-03-01T04:57:54;-2.00;99.90
64143;DHT22;50437;51.970;5.904;2023-03-01T05:00:21;-2.00;99.90
64143;DHT22;50437;51.970;5.904;2023-03-01T05:02:53;-2.00;99.90
64143;DHT22;50437;51.970;5.904;2023-03-01T05:05:25;-2.00;99.90
64143;DHT22;50437;51.970;5.904;2023-03-01T05:07:53;-2.00;99.90
64143;DHT22;50437;51.970;5.904;2023-03-01T05:10:22;-2.00;99.90
64143;DHT22;50437;51.970;5.904;2023-03-01T05:12:48;-2.10;99.90
64143;DHT22;50437;51.970;5.904;2023-03-01T05:15:14;-2.10;99.90
64143;DHT22;50437;51.970;5.904;2023-03-01T05:17:41;-2.00;99.90
64143;DHT22;50437;51.970;5.904;2023-03-01T05:20:08;-2.00;99.90
64143;DHT22;50437;51.970;5.904;2023-03-01T05:22:35;-2.10;99.90
64143;DHT22;50437;51.970;5.904;2023-03-01T05:25:02;-2.10;99.90
64143;DHT22;50437;51.970;5.904;2023-03-01T05:27:28;-2.20;99.90
64143;DHT22;50437;51.970;5.904;2023-03-01T05:29:56;-2.10;99.90
64143;DHT22;50437;51.970;5.904;2023-03-01T05:32:22;-2.10;99.90
64143;DHT22;50437;51.970;5.904;2023-03-01T05:34:48;-2.10;99.90
64143;DHT22;50437;51.970;5.904;2023-03-01T05:37:14;-2.10;99.90
64143;DHT22;50437;51.970;5.904;2023-03-01T05:39:40;-2.20;99.90
64143;DHT22;50437;51.970;5.904;2023-03-01T05:42:10;-2.20;99.90
64143;DHT22;50437;51.970;5.904;2023-03-01T05:44:42;-2.20;99.90
64143;DHT22;50437;51.970;5.904;2023-03-01T05:47:08;-2.20;99.90
64143;DHT22;50437;51.970;5.904;2023-03-01T05:49:34;-2.20;99.90
64143;DHT22;50437;51.970;5.904;2023-03-01T05:52:01;-2.20;99.90
64143;DHT22;50437;51.970;5.904;2023-03-01T05:54:27;-2.20;99.90
64143;DHT22;50437;51.970;5.904;2023-03-01T05:56:53;-2.30;99.90
64143;DHT22;50437;51.970;5.904;2023-03-01T05:59:19;-2.30;99.90
64143;DHT22;50437;51.970;5.904;2023-03-01T06:01:45;-2.30;99.90
64143;DHT22;50437;51.970;5.904;2023-03-01T06:04:11;-2.30;99.90
64143;DHT22;50437;51.970;5.904;2023-03-01T06:06:38;-2.30;99.90
64143;DHT22;50437;51.970;5.904;2023-03-01T06:09:05;-2.30;99.90
64143;DHT22;50437;51.970;5.904;2023-03-01T06:11:36;-2.30;99.90
64143;DHT22;50437;51.970;5.904;2023-03-01T06:14:03;-2.30;99.90
64143;DHT22;50437;51.970;5.904;2023-03-01T06:16:29;-2.40;99.90
64143;DHT22;50437;51.970;5.904;2023-03-01T06:18:55;-2.30;99.90
64143;DHT22;50437;51.970;5.904;2023-03-01T06:21:22;-2.30;99.90
64143;DHT22;50437;51.970;5.904;2023-03-01T06:23:48;-2.20;99.90
64143;DHT22;50437;51.970;5.904;2023-03-01T06:26:14;-2.10;99.90
64143;DHT22;50437;51.970;5.904;2023-03-01T06:28:41;-2.10;99.90
64143;DHT22;50437;51.970;5.904;2023-03-01T06:31:08;-2.10;99.90
64143;DHT22;50437;51.970;5.904;2023-03-01T06:33:35;-2.20;99.90
64143;DHT22;50437;51.970;5.904;2023-03-01T06:38:53;-2.10;99.90
64143;DHT22;50437;51.970;5.904;2023-03-01T06:41:19;-2.10;99.90
64143;DHT22;50437;51.970;5.904;2023-03-01T06:43:45;-2.20;99.90
64143;DHT22;50437;51.970;5.904;2023-03-01T06:46:11;-2.20;99.90
64143;DHT22;50437;51.970;5.904;2023-03-01T06:48:38;-2.10;99.90
64143;DHT22;50437;51.970;5.904;2023-03-01T06:51:04;-2.10;99.90
64143;DHT22;50437;51.970;5.904;2023-03-01T06:53:30;-2.00;99.90
64143;DHT22;50437;51.970;5.904;2023-03-01T06:55:57;-2.00;99.90
64143;DHT22;50437;51.970;5.904;2023-03-01T06:58:23;-2.00;99.90
64143;DHT22;50437;51.970;5.904;2023-03-01T07:00:49;-1.90;99.90
64143;DHT22;50437;51.970;5.904;2023-03-01T07:03:16;-1.90;99.90
64143;DHT22;50437;51.970;5.904;2023-03-01T07:05:42;-1.80;99.90
64143;DHT22;50437;51.970;5.904;2023-03-01T07:08:08;-1.70;99.90
64143;DHT22;50437;51.970;5.904;2023-03-01T07:10:34;-1.70;99.90
64143;DHT22;50437;51.970;5.904;2023-03-01T07:13:01;-1.60;99.90
64143;DHT22;50437;51.970;5.904;2023-03-01T07:15:29;-1.40;99.90
64143;DHT22;50437;51.970;5.904;2023-03-01T07:17:56;-1.50;99.90
64143;DHT22;50437;51.970;5.904;2023-03-01T07:20:22;-1.30;99.90
64143;DHT22;50437;51.970;5.904;2023-03-01T07:22:52;-1.30;99.90
64143;DHT22;50437;51.970;5.904;2023-03-01T07:25:18;-1.30;99.90
64143;DHT22;50437;51.970;5.904;2023-03-01T07:27:52;-1.30;99.90
64143;DHT22;50437;51.970;5.904;2023-03-01T07:30:19;-1.20;99.90
64143;DHT22;50437;51.970;5.904;2023-03-01T07:32:45;-1.20;99.90
64143;DHT22;50437;51.970;5.904;2023-03-01T07:35:12;-1.20;99.90
64143;DHT22;50437;51.970;5.904;2023-03-01T07:37:38;-1.10;99.90
64143;DHT22;50437;51.970;5.904;2023-03-01T07:40:04;-1.10;99.90
64143;DHT22;50437;51.970;5.904;2023-03-01T07:42:31;-0.90;99.90
64143;DHT22;50437;51.970;5.904;2023-03-01T07:44:57;-0.80;99.90
64143;DHT22;50437;51.970;5.904;2023-03-01T07:47:23;-0.70;99.90
64143;DHT22;50437;51.970;5.904;2023-03-01T07:49:49;-0.70;99.90
64143;DHT22;50437;51.970;5.904;2023-03-01T07:52:15;-0.60;99.90
64143;DHT22;50437;51.970;5.904;2023-03-01T07:54:45;-0.60;99.90
64143;DHT22;50437;51.970;5.904;2023-03-01T07:57:11;-0.50;99.90
64143;DHT22;50437;51.970;5.904;2023-03-01T07:59:37;-0.40;99.90
64143;DHT22;50437;51.970;5.904;2023-03-01T08:02:03;-0.30;99.90
64143;DHT22;50437;51.970;5.904;2023-03-01T08:04:30;-0.20;99.90
64143;DHT22;50437;51.970;5.904;2023-03-01T08:06:57;-0.10;99.90
64143;DHT22;50437;51.970;5.904;2023-03-01T08:09:23;0.00;99.90
64143;DHT22;50437;51.970;5.904;2023-03-01T08:11:49;0.00;99.90
64143;DHT22;50437;51.970;5.904;2023-03-01T08:14:15;0.10;99.90
64143;DHT22;50437;51.970;5.904;2023-03-01T08:16:42;0.20;99.90
64143;DHT22;50437;51.970;5.904;2023-03-01T08:19:12;0.40;99.90
64143;DHT22;50437;51.970;5.904;2023-03-01T08:21:38;0.40;99.90
64143;DHT22;50437;51.970;5.904;2023-03-01T08:24:06;0.50;99.90
64143;DHT22;50437;51.970;5.904;2023-03-01T08:26:33;0.50;99.90
64143;DHT22;50437;51.970;5.904;2023-03-01T08:29:00;0.60;99.90
64143;DHT22;50437;51.970;5.904;2023-03-01T08:31:33;0.70;99.90
64143;DHT22;50437;51.970;5.904;2023-03-01T08:34:19;0.70;99.90
64143;DHT22;50437;51.970;5.904;2023-03-01T08:36:46;0.80;99.90
64143;DHT22;50437;51.970;5.904;2023-03-01T08:39:14;0.90;99.90
64143;DHT22;50437;51.970;5.904;2023-03-01T08:41:41;1.00;99.90
64143;DHT22;50437;51.970;5.904;2023-03-01T08:44:08;1.10;99.90
64143;DHT22;50437;51.970;5.904;2023-03-01T08:46:37;1.10;99.90
64143;DHT22;50437;51.970;5.904;2023-03-01T08:49:23;1.10;99.90
64143;DHT22;50437;51.970;5.904;2023-03-01T08:51:52;1.20;99.90
64143;DHT22;50437;51.970;5.904;2023-03-01T08:54:21;1.20;99.90
64143;DHT22;50437;51.970;5.904;2023-03-01T08:56:48;1.30;99.90
64143;DHT22;50437;51.970;5.904;2023-03-01T08:59:15;1.40;99.90
64143;DHT22;50437;51.970;5.904;2023-03-01T09:01:42;1.40;99.90
64143;DHT22;50437;51.970;5.904;2023-03-01T09:04:12;1.40;99.90
64143;DHT22;50437;51.970;5.904;2023-03-01T09:06:40;1.50;99.90
64143;DHT22;50437;51.970;5.904;2023-03-01T09:09:16;1.60;99.90
64143;DHT22;50437;51.970;5.904;2023-03-01T09:11:44;1.60;99.90
64143;DHT22;50437;51.970;5.904;2023-03-01T09:14:16;1.60;99.90
64143;DHT22;50437;51.970;5.904;2023-03-01T09:16:42;1.70;99.90
64143;DHT22;50437;51.970;5.904;2023-03-01T09:19:12;1.70;99.90
64143;DHT22;50437;51.970;5.904;2023-03-01T09:21:41;1.90;99.90
64143;DHT22;50437;51.970;5.904;2023-03-01T09:24:20;2.20;99.90
64143;DHT22;50437;51.970;5.904;2023-03-01T09:26:47;3.20;99.90
64143;DHT22;50437;51.970;5.904;2023-03-01T09:29:14;4.50;99.90
64143;DHT22;50437;51.970;5.904;2023-03-01T09:31:41;5.70;97.70
64143;DHT22;50437;51.970;5.904;2023-03-01T09:34:08;6.50;91.00
64143;DHT22;50437;51.970;5.904;2023-03-01T09:36:35;6.90;81.40
64143;DHT22;50437;51.970;5.904;2023-03-01T09:39:02;7.80;75.30
64143;DHT22;50437;51.970;5.904;2023-03-01T09:44:39;8.20;67.50
64143;DHT22;50437;51.970;5.904;2023-03-01T09:47:27;8.10;63.90
64143;DHT22;50437;51.970;5.904;2023-03-01T09:50:06;8.40;62.30
64143;DHT22;50437;51.970;5.904;2023-03-01T09:52:42;8.10;61.40
64143;DHT22;50437;51.970;5.904;2023-03-01T09:55:12;8.10;62.20
64143;DHT22;50437;51.970;5.904;2023-03-01T09:57:47;8.40;60.40
64143;DHT22;50437;51.970;5.904;2023-03-01T10:00:36;8.70;58.30
64143;DHT22;50437;51.970;5.904;2023-03-01T10:03:19;9.30;55.80
64143;DHT22;50437;51.970;5.904;2023-03-01T10:09:33;7.70;58.30
64143;DHT22;50437;51.970;5.904;2023-03-01T10:11:38;7.90;58.70
64143;DHT22;50437;51.970;5.904;2023-03-01T10:14:30;7.40;59.10
64143;DHT22;50437;51.970;5.904;2023-03-01T10:19:38;8.40;55.60
64143;DHT22;50437;51.970;5.904;2023-03-01T10:22:28;8.40;55.90
64143;DHT22;50437;51.970;5.904;2023-03-01T10:24:58;9.00;52.70
64143;DHT22;50437;51.970;5.904;2023-03-01T10:27:34;9.10;52.50
64143;DHT22;50437;51.970;5.904;2023-03-01T10:32:52;10.20;52.00
64143;DHT22;50437;51.970;5.904;2023-03-01T10:35:31;10.10;49.20
64143;DHT22;50437;51.970;5.904;2023-03-01T10:38:07;9.70;48.40
64143;DHT22;50437;51.970;5.904;2023-03-01T10:40:35;10.20;49.70
64143;DHT22;50437;51.970;5.904;2023-03-01T10:43:04;9.80;47.80
64143;DHT22;50437;51.970;5.904;2023-03-01T10:45:34;10.30;47.90
64143;DHT22;50437;51.970;5.904;2023-03-01T10:48:26;9.80;46.90
64143;DHT22;50437;51.970;5.904;2023-03-01T10:53:38;10.50;47.70
64143;DHT22;50437;51.970;5.904;2023-03-01T10:56:13;10.80;46.90
64143;DHT22;50437;51.970;5.904;2023-03-01T10:58:56;11.20;45.80
64143;DHT22;50437;51.970;5.904;2023-03-01T11:06:34;10.70;46.30
64143;DHT22;50437;51.970;5.904;2023-03-01T11:09:22;11.50;45.10
64143;DHT22;50437;51.970;5.904;2023-03-01T11:11:55;12.00;43.10
64143;DHT22;50437;51.970;5.904;2023-03-01T11:14:24;12.10;43.50
64143;DHT22;50437;51.970;5.904;2023-03-01T11:17:03;11.90;42.60
64143;DHT22;50437;51.970;5.904;2023-03-01T11:19:31;11.40;41.40
64143;DHT22;50437;51.970;5.904;2023-03-01T11:22:07;11.20;41.70
64143;DHT22;50437;51.970;5.904;2023-03-01T11:24:55;11.20;43.50
64143;DHT22;50437;51.970;5.904;2023-03-01T11:27:28;11.90;42.00
64143;DHT22;50437;51.970;5.904;2023-03-01T11:30:13;11.20;41.20
64143;DHT22;50437;51.970;5.904;2023-03-01T11:33:05;11.10;42.40
64143;DHT22;50437;51.970;5.904;2023-03-01T11:35:37;11.90;41.70
64143;DHT22;50437;51.970;5.904;2023-03-01T11:38:27;11.30;41.70
64143;DHT22;50437;51.970;5.904;2023-03-01T11:44:10;11.00;42.30
64143;DHT22;50437;51.970;5.904;2023-03-01T11:47:07;11.40;40.30
64143;DHT22;50437;51.970;5.904;2023-03-01T11:53:16;10.90;42.60
64143;DHT22;50437;51.970;5.904;2023-03-01T12:05:28;10.50;44.90
64143;DHT22;50437;51.970;5.904;2023-03-01T12:08:38;10.20;43.60
64143;DHT22;50437;51.970;5.904;2023-03-01T12:11:41;9.80;44.30
64143;DHT22;50437;51.970;5.904;2023-03-01T12:20:51;9.80;44.60
64143;DHT22;50437;51.970;5.904;2023-03-01T12:33:40;9.40;45.20
64143;DHT22;50437;51.970;5.904;2023-03-01T12:36:47;9.50;45.20
64143;DHT22;50437;51.970;5.904;2023-03-01T12:40:00;9.30;46.60
64143;DHT22;50437;51.970;5.904;2023-03-01T12:43:10;9.30;45.80
64143;DHT22;50437;51.970;5.904;2023-03-01T12:46:10;9.10;45.30
64143;DHT22;50437;51.970;5.904;2023-03-01T12:49:22;9.20;45.50
64143;DHT22;50437;51.970;5.904;2023-03-01T12:52:44;9.10;46.10
64143;DHT22;50437;51.970;5.904;2023-03-01T12:54:55;9.10;46.20
64143;DHT22;50437;51.970;5.904;2023-03-01T12:57:31;8.90;46.40
64143;DHT22;50437;51.970;5.904;2023-03-01T13:00:26;8.90;48.00
64143;DHT22;50437;51.970;5.904;2023-03-01T13:07:04;9.20;44.50
64143;DHT22;50437;51.970;5.904;2023-03-01T13:11:59;8.60;44.50
64143;DHT22;50437;51.970;5.904;2023-03-01T13:14:36;8.40;46.60
64143;DHT22;50437;51.970;5.904;2023-03-01T13:17:40;8.50;45.70
64143;DHT22;50437;51.970;5.904;2023-03-01T13:28:57;8.60;46.40
64143;DHT22;50437;51.970;5.904;2023-03-01T13:34:59;8.80;46.70
64143;DHT22;50437;51.970;5.904;2023-03-01T13:37:37;8.50;46.40
64143;DHT22;50437;51.970;5.904;2023-03-01T13:43:01;8.70;47.20
64143;DHT22;50437;51.970;5.904;2023-03-01T13:45:53;8.70;47.40
64143;DHT22;50437;51.970;5.904;2023-03-01T13:48:47;8.80;47.30
64143;DHT22;50437;51.970;5.904;2023-03-01T13:51:26;8.90;45.70
64143;DHT22;50437;51.970;5.904;2023-03-01T13:53:59;8.60;46.00
64143;DHT22;50437;51.970;5.904;2023-03-01T13:56:36;8.30;45.60
64143;DHT22;50437;51.970;5.904;2023-03-01T13:59:21;8.50;45.80
64143;DHT22;50437;51.970;5.904;2023-03-01T14:02:12;8.50;46.20
64143;DHT22;50437;51.970;5.904;2023-03-01T14:04:59;8.40;46.30
64143;DHT22;50437;51.970;5.904;2023-03-01T14:07:29;8.30;45.00
64143;DHT22;50437;51.970;5.904;2023-03-01T14:10:05;8.40;45.40
64143;DHT22;50437;51.970;5.904;2023-03-01T14:12:59;8.50;45.60
64143;DHT22;50437;51.970;5.904;2023-03-01T14:15:38;8.60;46.00
64143;DHT22;50437;51.970;5.904;2023-03-01T14:18:18;8.60;46.20
64143;DHT22;50437;51.970;5.904;2023-03-01T14:20:47;8.60;46.70
64143;DHT22;50437;51.970;5.904;2023-03-01T14:23:22;8.50;46.30
64143;DHT22;50437;51.970;5.904;2023-03-01T14:25:53;8.60;45.50
64143;DHT22;50437;51.970;5.904;2023-03-01T14:28:26;8.40;45.90
64143;DHT22;50437;51.970;5.904;2023-03-01T14:30:57;8.40;46.90
64143;DHT22;50437;51.970;5.904;2023-03-01T14:33:33;8.50;47.40
64143;DHT22;50437;51.970;5.904;2023-03-01T14:36:26;8.30;46.40
64143;DHT22;50437;51.970;5.904;2023-03-01T14:39:22;8.40;47.70
64143;DHT22;50437;51.970;5.904;2023-03-01T14:41:59;8.60;47.70
64143;DHT22;50437;51.970;5.904;2023-03-01T14:44:47;8.50;46.60
64143;DHT22;50437;51.970;5.904;2023-03-01T14:47:32;8.40;45.70
64143;DHT22;50437;51.970;5.904;2023-03-01T14:50:22;8.50;47.90
64143;DHT22;50437;51.970;5.904;2023-03-01T14:52:57;8.30;45.40
64143;DHT22;50437;51.970;5.904;2023-03-01T14:55:38;8.30;47.00
64143;DHT22;50437;51.970;5.904;2023-03-01T14:58:34;8.50;47.80
64143;DHT22;50437;51.970;5.904;2023-03-01T15:01:05;8.30;45.00
64143;DHT22;50437;51.970;5.904;2023-03-01T15:03:48;8.30;46.80
64143;DHT22;50437;51.970;5.904;2023-03-01T15:06:27;8.10;44.40
64143;DHT22;50437;51.970;5.904;2023-03-01T15:08:58;8.10;45.40
64143;DHT22;50437;51.970;5.904;2023-03-01T15:11:30;8.10;44.60
64143;DHT22;50437;51.970;5.904;2023-03-01T15:14:27;8.00;44.00
64143;DHT22;50437;51.970;5.904;2023-03-01T15:17:03;7.70;44.20
64143;DHT22;50437;51.970;5.904;2023-03-01T15:19:30;7.80;45.80
64143;DHT22;50437;51.970;5.904;2023-03-01T15:21:56;8.00;45.90
64143;DHT22;50437;51.970;5.904;2023-03-01T15:24:33;8.20;45.30
64143;DHT22;50437;51.970;5.904;2023-03-01T15:27:16;8.10;45.40
64143;DHT22;50437;51.970;5.904;2023-03-01T15:29:52;8.20;46.80
64143;DHT22;50437;51.970;5.904;2023-03-01T15:32:34;8.00;45.40
64143;DHT22;50437;51.970;5.904;2023-03-01T15:38:50;7.90;46.30
64143;DHT22;50437;51.970;5.904;2023-03-01T15:41:47;7.90;47.50
64143;DHT22;50437;51.970;5.904;2023-03-01T15:44:39;7.90;46.50
64143;DHT22;50437;51.970;5.904;2023-03-01T15:47:39;8.10;47.10
64143;DHT22;50437;51.970;5.904;2023-03-01T15:50:38;7.80;46.60
64143;DHT22;50437;51.970;5.904;2023-03-01T15:53:12;7.70;47.80
64143;DHT22;50437;51.970;5.904;2023-03-01T15:55:42;7.60;46.70
64143;DHT22;50437;51.970;5.904;2023-03-01T15:58:24;7.50;47.90
64143;DHT22;50437;51.970;5.904;2023-03-01T16:01:07;7.60;47.80
64143;DHT22;50437;51.970;5.904;2023-03-01T16:03:46;7.50;47.50
64143;DHT22;50437;51.970;5.904;2023-03-01T16:06:17;7.50;48.90
64143;DHT22;50437;51.970;5.904;2023-03-01T16:08:52;7.50;48.10
64143;DHT22;50437;51.970;5.904;2023-03-01T16:11:21;7.30;48.70
64143;DHT22;50437;51.970;5.904;2023-03-01T16:14:04;7.40;49.40
64143;DHT22;50437;51.970;5.904;2023-03-01T16:16:34;7.70;48.90
64143;DHT22;50437;51.970;5.904;2023-03-01T16:19:01;7.70;47.50
64143;DHT22;50437;51.970;5.904;2023-03-01T16:21:34;7.50;47.80
64143;DHT22;50437;51.970;5.904;2023-03-01T16:24:08;7.20;48.10
64143;DHT22;50437;51.970;5.904;2023-03-01T16:27:15;6.90;48.60
64143;DHT22;50437;51.970;5.904;2023-03-01T16:29:55;6.80;50.20
64143;DHT22;50437;51.970;5.904;2023-03-01T16:32:51;6.70;51.00
64143;DHT22;50437;51.970;5.904;2023-03-01T16:35:46;6.60;50.40
64143;DHT22;50437;51.970;5.904;2023-03-01T16:39:03;6.40;49.50
64143;DHT22;50437;51.970;5.904;2023-03-01T16:41:53;6.30;49.50
64143;DHT22;50437;51.970;5.904;2023-03-01T16:44:56;6.20;50.80
64143;DHT22;50437;51.970;5.904;2023-03-01T16:47:22;6.10;49.90
64143;DHT22;50437;51.970;5.904;2023-03-01T16:49:52;6.10;50.70
64143;DHT22;50437;51.970;5.904;2023-03-01T16:52:19;6.00;50.90
64143;DHT22;50437;51.970;5.904;2023-03-01T16:54:46;6.00;52.00
64143;DHT22;50437;51.970;5.904;2023-03-01T16:57:12;5.80;52.80
64143;DHT22;50437;51.970;5.904;2023-03-01T16:59:38;5.80;52.70
64143;DHT22;50437;51.970;5.904;2023-03-01T17:02:05;5.70;52.60
64143;DHT22;50437;51.970;5.904;2023-03-01T17:04:39;5.70;53.00
64143;DHT22;50437;51.970;5.904;2023-03-01T17:07:06;5.60;54.40
64143;DHT22;50437;51.970;5.904;2023-03-01T17:09:37;5.50;54.30
64143;DHT22;50437;51.970;5.904;2023-03-01T17:12:06;5.40;53.90
64143;DHT22;50437;51.970;5.904;2023-03-01T17:14:33;5.40;54.00
64143;DHT22;50437;51.970;5.904;2023-03-01T17:17:09;5.40;54.50
64143;DHT22;50437;51.970;5.904;2023-03-01T17:19:40;5.30;55.40
64143;DHT22;50437;51.970;5.904;2023-03-01T17:22:12;5.30;55.50
64143;DHT22;50437;51.970;5.904;2023-03-01T17:24:43;5.20;56.10
64143;DHT22;50437;51.970;5.904;2023-03-01T17:27:12;5.10;57.50
64143;DHT22;50437;51.970;5.904;2023-03-01T17:29:39;4.90;57.80
64143;DHT22;50437;51.970;5.904;2023-03-01T17:32:06;4.90;59.10
64143;DHT22;50437;51.970;5.904;2023-03-01T17:34:34;4.80;59.20
64143;DHT22;50437;51.970;5.904;2023-03-01T17:37:01;4.70;59.30
64143;DHT22;50437;51.970;5.904;2023-03-01T17:39:29;4.60;60.70
64143;DHT22;50437;51.970;5.904;2023-03-01T17:42:02;4.60;60.80
64143;DHT22;50437;51.970;5.904;2023-03-01T17:44:32;4.50;61.20